Time;durP1;ratioP1;P1;durP2;ratioP2;P2;SDS_P1;SDS_P2;PMS_P1;PMS_P2;Temp;Humidity;BMP_temperature;BMP_pressure;BME280_temperature;BME280_humidity;BME280_pressure;Samples;Min_cycle;Max_cycle;Signal;HPM_P1;HPM_P2
2023/06/08 00:00:06;;;;;;;1999.90;999.90;;;;;;;15.36;100.00;95155.53;5065172;28;20170;-58
2023/06/08 00:02:32;;;;;;;1999.90;999.90;;;;;;;15.36;100.00;95152.00;5064684;28;20206;-58
2023/06/08 00:04:57;;;;;;;1999.90;999.90;;;;;;;15.35;100.00;95145.75;5064762;28;20264;-58
2023/06/08 00:07:24;;;;;;;1999.90;999.90;;;;;;;15.35;100.00;95145.75;5064577;28;20173;-58
2023/06/08 00:09:50;;;;;;;1999.90;999.90;;;;;;;15.33;100.00;95153.63;5064781;28;20166;-59
2023/06/08 00:12:16;;;;;;;1999.90;999.90;;;;;;;15.31;100.00;95150.56;5065278;28;20170;-58
2023/06/08 00:14:42;;;;;;;1999.90;999.90;;;;;;;15.19;100.00;95148.56;5064697;28;20196;-59
2023/06/08 00:17:08;;;;;;;1999.90;999.90;;;;;;;15.14;100.00;95151.06;5064941;28;20185;-58
2023/06/08 00:19:36;;;;;;;1999.90;999.90;;;;;;;15.18;100.00;95143.50;5064352;28;20172;-58
2023/06/08 00:22:07;;;;;;;1999.90;999.90;;;;;;;15.21;100.00;95150.88;5065017;28;20196;-58
2023/06/08 00:24:35;;;;;;;1999.90;999.90;;;;;;;15.09;100.00;95146.91;5064538;28;20182;-58
2023/06/08 00:27:01;;;;;;;1999.90;999.90;;;;;;;15.04;100.00;95147.44;5064450;28;20193;-58
2023/06/08 00:29:27;;;;;;;1999.90;999.90;;;;;;;14.99;100.00;95139.72;5064467;28;20166;-58
2023/06/08 00:31:52;;;;;;;1999.90;999.90;;;;;;;15.00;100.00;95135.00;5064422;28;20162;-58
2023/06/08 00:34:18;;;;;;;1999.90;999.90;;;;;;;14.96;100.00;95132.34;5063779;28;20169;-58
2023/06/08 00:36:44;;;;;;;1999.90;999.90;;;;;;;14.94;100.00;95129.25;5064852;28;20166;-58
2023/06/08 00:39:10;;;;;;;1999.90;999.90;;;;;;;14.90;100.00;95136.84;5064743;28;20228;-58
2023/06/08 00:41:36;;;;;;;1999.90;999.90;;;;;;;14.89;100.00;95135.31;5064353;28;20170;-58
2023/06/08 00:44:04;;;;;;;1999.90;999.90;;;;;;;14.87;100.00;95136.97;5064047;28;20189;-58
2023/06/08 00:46:30;;;;;;;1999.90;999.90;;;;;;;14.84;100.00;95132.31;5063900;28;20173;-58
2023/06/08 00:49:00;;;;;;;1999.90;999.90;;;;;;;14.74;100.00;95133.41;5064819;28;20173;-58
2023/06/08 00:51:31;;;;;;;1999.90;999.90;;;;;;;14.64;100.00;95131.75;5064920;28;20176;-58
2023/06/08 00:53:56;;;;;;;1999.90;999.90;;;;;;;14.57;100.00;95129.94;5064007;28;20170;-58
2023/06/08 00:56:26;;;;;;;1999.90;999.90;;;;;;;14.52;100.00;95135.19;5064230;28;20212;-58
2023/06/08 00:58:55;;;;;;;1999.90;999.90;;;;;;;14.42;100.00;95126.03;5063899;28;20177;-58
2023/06/08 01:01:25;;;;;;;1999.90;999.90;;;;;;;14.38;100.00;95122.63;5063902;28;20220;-58
2023/06/08 01:03:51;;;;;;;1999.90;999.90;;;;;;;14.38;100.00;95122.63;5063563;28;20244;-59
2023/06/08 01:06:17;;;;;;;1999.90;999.90;;;;;;;14.38;100.00;95117.13;5063952;28;20197;-58
2023/06/08 01:09:00;;;;;;;1999.90;999.90;;;;;;;14.35;100.00;95123.47;5063766;28;20173;-58
2023/06/08 01:11:48;;;;;;;1999.90;999.90;;;;;;;14.30;100.00;95118.53;5064311;28;20162;-58
2023/06/08 01:14:29;;;;;;;1999.90;999.90;;;;;;;14.20;100.00;95122.28;5061071;28;20186;-58
2023/06/08 01:17:00;;;;;;;1999.90;999.90;;;;;;;14.18;100.00;95127.47;5064171;28;20157;-58
2023/06/08 01:19:52;;;;;;;1999.90;999.90;;;;;;;14.15;100.00;95114.59;5064268;28;20162;-58
2023/06/08 01:22:32;;;;;;;1999.90;999.90;;;;;;;14.16;100.00;95109.88;5034371;28;20178;-58
2023/06/08 01:25:00;;;;;;;1999.90;999.90;;;;;;;14.14;100.00;95118.56;5064076;28;20197;-59
2023/06/08 01:27:32;;;;;;;1999.90;999.90;;;;;;;14.10;100.00;95112.38;5063553;28;20173;-58
2023/06/08 01:29:57;;;;;;;1999.90;999.90;;;;;;;14.14;100.00;95102.06;5064141;28;20162;-58
2023/06/08 01:32:23;;;;;;;1999.90;999.90;;;;;;;14.15;100.00;95102.81;5064082;28;20170;-58
2023/06/08 01:34:49;;;;;;;1999.90;999.90;;;;;;;14.10;100.00;95098.66;5064212;28;20237;-58
2023/06/08 01:37:26;;;;;;;1999.90;999.90;;;;;;;13.93;100.00;95110.84;5064238;28;20170;-59
2023/06/08 01:40:00;;;;;;;1999.90;999.90;;;;;;;13.89;100.00;95106.66;5063759;28;20173;-58
2023/06/08 01:42:27;;;;;;;1999.90;999.90;;;;;;;13.77;100.00;95104.63;5063840;28;20162;-58
2023/06/08 01:44:57;;;;;;;1999.90;999.90;;;;;;;13.61;100.00;95105.38;5063903;28;20232;-58
2023/06/08 01:47:28;;;;;;;1999.90;999.90;;;;;;;13.56;100.00;95111.41;5067803;28;20177;-59
2023/06/08 01:49:54;;;;;;;1999.90;999.90;;;;;;;13.54;100.00;95100.06;5068202;28;20245;-58
2023/06/08 01:52:20;;;;;;;1999.90;999.90;;;;;;;13.47;100.00;95097.50;5067406;28;20185;-58
2023/06/08 01:54:46;;;;;;;1999.90;999.90;;;;;;;13.40;100.00;95094.91;5067744;28;20192;-59
2023/06/08 01:57:11;;;;;;;1999.90;999.90;;;;;;;13.38;100.00;95097.34;5067279;28;20253;-58
2023/06/08 01:59:36;;;;;;;1999.90;999.90;;;;;;;13.41;100.00;95093.75;5067297;28;20169;-58
2023/06/08 02:02:02;;;;;;;1999.90;999.90;;;;;;;13.41;100.00;95093.75;5067543;28;20237;-58
2023/06/08 02:04:27;;;;;;;1999.90;999.90;;;;;;;13.44;100.00;95087.38;5067394;28;20206;-58
2023/06/08 02:06:53;;;;;;;1999.90;999.90;;;;;;;13.44;100.00;95087.38;5066975;28;20170;-58
2023/06/08 02:09:18;;;;;;;1999.90;999.90;;;;;;;13.45;100.00;95088.94;5067248;28;20248;-58
2023/06/08 02:11:43;;;;;;;1999.90;999.90;;;;;;;13.45;100.00;95083.44;5066943;28;20181;-58
2023/06/08 02:14:09;;;;;;;1999.90;999.90;;;;;;;13.42;100.00;95084.31;5066966;28;20178;-58
2023/06/08 02:16:34;;;;;;;1999.90;999.90;;;;;;;13.40;100.00;95083.94;5067689;28;20244;-58
2023/06/08 02:19:01;;;;;;;1999.90;999.90;;;;;;;13.40;100.00;95081.22;5066957;28;20177;-58
2023/06/08 02:21:26;;;;;;;1999.90;999.90;;;;;;;13.42;100.00;95083.53;5067295;28;20170;-58
2023/06/08 02:23:52;;;;;;;1999.90;999.90;;;;;;;13.36;100.00;95090.75;5067212;28;20276;-59
2023/06/08 02:26:17;;;;;;;1999.90;999.90;;;;;;;13.32;100.00;95091.59;5066740;28;20205;-59
2023/06/08 02:28:43;;;;;;;1999.90;999.90;;;;;;;13.32;100.00;95083.38;5066733;28;20247;-59
2023/06/08 02:31:08;;;;;;;1999.90;999.90;;;;;;;13.32;100.00;95088.84;5067097;28;20235;-59
2023/06/08 02:33:33;;;;;;;1999.90;999.90;;;;;;;13.26;100.00;95092.53;5066778;28;20169;-58
2023/06/08 02:35:59;;;;;;;1999.90;999.90;;;;;;;13.15;100.00;95081.78;5067067;28;20180;-59
2023/06/08 02:38:25;;;;;;;1999.90;999.90;;;;;;;13.10;100.00;95084.28;5067143;28;20173;-58
2023/06/08 02:40:51;;;;;;;1999.90;999.90;;;;;;;13.05;100.00;95087.53;5066441;28;20173;-59
2023/06/08 02:43:18;;;;;;;1999.90;999.90;;;;;;;13.01;100.00;95087.59;5067027;28;20201;-59
2023/06/08 02:45:43;;;;;;;1999.90;999.90;;;;;;;13.00;100.00;95079.81;5066775;28;20213;-58
2023/06/08 02:48:09;;;;;;;1999.90;999.90;;;;;;;12.97;100.00;95086.13;5066428;28;20178;-58
2023/06/08 02:50:34;;;;;;;1999.90;999.90;;;;;;;12.98;100.00;95085.72;5066317;28;20178;-58
2023/06/08 02:52:59;;;;;;;1999.90;999.90;;;;;;;12.90;100.00;95080.81;5066396;28;20212;-58
2023/06/08 02:55:25;;;;;;;1999.90;999.90;;;;;;;12.83;100.00;95075.47;5066216;28;20185;-59
2023/06/08 02:57:51;;;;;;;1999.90;999.90;;;;;;;12.82;100.00;95073.94;5065939;28;20177;-59
2023/06/08 03:00:20;;;;;;;1999.90;999.90;;;;;;;12.87;100.00;95067.94;5066108;28;20174;-59
2023/06/08 03:02:45;;;;;;;1999.90;999.90;;;;;;;12.82;100.00;95068.47;5065663;28;20236;-58
2023/06/08 03:05:10;;;;;;;1999.90;999.90;;;;;;;12.78;100.00;95067.75;5066460;28;20229;-58
2023/06/08 03:07:40;;;;;;;1999.90;999.90;;;;;;;12.69;100.00;95081.25;5066266;28;20181;-58
2023/06/08 03:10:06;;;;;;;1999.90;999.90;;;;;;;12.52;100.00;95071.44;5065942;28;20200;-58
2023/06/08 03:12:32;;;;;;;1999.90;999.90;;;;;;;12.54;100.00;95074.53;5065876;28;20201;-58
2023/06/08 03:14:58;;;;;;;1999.90;999.90;;;;;;;12.51;100.00;95070.69;5065530;28;20193;-59
2023/06/08 03:17:24;;;;;;;1999.90;999.90;;;;;;;12.55;100.00;95076.06;5066470;28;20178;-58
2023/06/08 03:19:50;;;;;;;1999.90;999.90;;;;;;;12.55;100.00;95081.56;5066503;28;20178;-58
2023/06/08 03:22:16;;;;;;;1999.90;999.90;;;;;;;12.55;100.00;95081.56;5066269;28;20173;-60
2023/06/08 03:24:42;;;;;;;1999.90;999.90;;;;;;;12.55;100.00;95087.81;5065576;28;20213;-58
2023/06/08 03:27:08;;;;;;;1999.90;999.90;;;;;;;12.56;100.00;95083.09;5066327;28;20244;-58
2023/06/08 03:29:33;;;;;;;1999.90;999.90;;;;;;;12.54;100.00;95091.72;5065908;28;20200;-58
2023/06/08 03:31:59;;;;;;;1999.90;999.90;;;;;;;12.59;100.00;95098.69;5065509;28;20170;-58
2023/06/08 03:34:25;;;;;;;1999.90;999.90;;;;;;;12.69;100.00;95098.47;5065563;28;20174;-59
2023/06/08 03:36:55;;;;;;;1999.90;999.90;;;;;;;12.81;100.00;95102.50;5065691;28;20180;-58
2023/06/08 03:39:20;;;;;;;1999.90;999.90;;;;;;;12.96;100.00;95101.78;5065588;28;20174;-58
2023/06/08 03:41:46;;;;;;;1999.90;999.90;;;;;;;13.10;100.00;95111.69;5065398;28;20182;-59
2023/06/08 03:44:11;;;;;;;1999.90;999.90;;;;;;;13.34;100.00;95104.88;5065805;28;20202;-58
2023/06/08 03:46:37;;;;;;;1999.90;999.90;;;;;;;13.58;100.00;95122.69;5065212;28;20177;-59
2023/06/08 03:49:02;;;;;;;1999.90;999.90;;;;;;;13.79;100.00;95124.94;5065218;28;20178;-58
2023/06/08 03:51:27;;;;;;;1999.90;999.90;;;;;;;13.91;100.00;95132.47;5065090;28;20174;-58
2023/06/08 03:53:53;;;;;;;1999.90;999.90;;;;;;;14.11;100.00;95130.41;5065522;28;20197;-58
2023/06/08 03:56:19;;;;;;;1999.90;999.90;;;;;;;14.03;100.00;95137.28;5065108;28;20169;-58
2023/06/08 03:58:45;;;;;;;1999.90;999.90;;;;;;;14.35;100.00;95145.47;5064948;28;20170;-59
2023/06/08 04:01:13;;;;;;;1999.90;999.90;;;;;;;14.62;100.00;95142.38;5065345;28;20252;-57
2023/06/08 04:03:40;;;;;;;1999.90;999.90;;;;;;;14.89;100.00;95138.06;5064806;28;20232;-58
2023/06/08 04:06:08;;;;;;;1999.90;999.90;;;;;;;15.04;100.00;95136.44;5064841;28;20170;-57
2023/06/08 04:08:35;;;;;;;1999.90;999.90;;;;;;;15.01;100.00;95142.81;5063976;28;20214;-56
2023/06/08 04:11:00;;;;;;;1999.90;999.90;;;;;;;15.13;100.00;95144.03;5065258;28;20181;-56
2023/06/08 04:13:26;;;;;;;1999.90;999.90;;;;;;;15.16;100.00;95135.66;5064818;28;20253;-56
2023/06/08 04:15:52;;;;;;;1999.90;999.90;;;;;;;15.08;100.00;95141.84;5065225;28;20173;-57
2023/06/08 04:18:17;;;;;;;1999.90;999.90;;;;;;;15.15;100.00;95136.13;5064619;28;20193;-57
2023/06/08 04:20:43;;;;;;;1999.90;999.90;;;;;;;15.45;100.00;95149.38;5064565;28;20173;-55
2023/06/08 04:23:10;;;;;;;1999.90;999.90;;;;;;;15.88;100.00;95141.31;5064481;28;20170;-56
2023/06/08 04:25:35;;;;;;;1999.90;999.90;;;;;;;16.03;100.00;95143.16;5064476;28;20197;-55
2023/06/08 04:28:01;;;;;;;1999.90;999.90;;;;;;;16.29;100.00;95141.09;5064875;28;20181;-55
2023/06/08 04:30:28;;;;;;;1999.90;999.90;;;;;;;16.44;100.00;95142.94;5064716;28;20166;-56
2023/06/08 04:32:53;;;;;;;1999.90;999.90;;;;;;;16.56;100.00;95149.63;5064871;28;20170;-57
2023/06/08 04:35:19;;;;;;;1999.90;999.90;;;;;;;16.92;100.00;95149.91;5064338;28;20170;-58
2023/06/08 04:37:44;;;;;;;1999.90;999.90;;;;;;;17.18;100.00;95154.06;5064308;28;20166;-57
2023/06/08 04:40:10;;;;;;;1999.90;999.90;;;;;;;17.47;100.00;95156.53;5064212;28;20166;-57
2023/06/08 04:42:38;;;;;;;1999.90;999.90;;;;;;;17.86;100.00;95166.81;5064236;28;20170;-56
2023/06/08 04:45:04;;;;;;;1999.90;999.90;;;;;;;18.04;100.00;95155.81;5064055;28;20311;-56
2023/06/08 04:47:29;;;;;;;1999.90;999.90;;;;;;;18.42;100.00;95153.47;5063965;28;20174;-57
2023/06/08 04:49:56;;;;;;;1999.90;999.90;;;;;;;18.74;100.00;95159.19;5064809;28;20166;-57
2023/06/08 04:52:22;;;;;;;1999.90;999.90;;;;;;;18.90;100.00;95158.84;5064579;28;20170;-58
2023/06/08 04:54:52;;;;;;;1999.90;999.90;;;;;;;19.05;100.00;95150.69;5064574;28;20161;-58
2023/06/08 04:57:19;;;;;;;1999.90;999.90;;;;;;;19.07;100.00;95148.22;5064425;28;20188;-59
2023/06/08 04:59:45;;;;;;;1999.90;999.90;;;;;;;19.05;100.00;95156.97;5064381;28;20189;-58
2023/06/08 05:02:10;;;;;;;1999.90;999.90;;;;;;;19.10;100.00;95150.84;5064001;28;20225;-57
2023/06/08 05:04:36;;;;;;;1999.90;999.90;;;;;;;19.05;100.00;95156.25;5064350;28;20197;-57
2023/06/08 05:07:01;;;;;;;1999.90;999.90;;;;;;;19.20;100.00;95159.91;5064216;28;20170;-58
2023/06/08 05:09:26;;;;;;;1999.90;999.90;;;;;;;19.44;100.00;95164.31;5063840;28;20204;-57
2023/06/08 05:11:52;;;;;;;1999.90;999.90;;;;;;;19.58;100.00;95162.91;5063716;28;20489;-58
2023/06/08 05:14:17;;;;;;;1999.90;999.90;;;;;;;19.73;100.00;95165.78;5063680;28;20245;-58
2023/06/08 05:16:43;;;;;;;1999.90;999.90;;;;;;;20.12;100.00;95159.16;5064140;28;20193;-58
2023/06/08 05:19:08;;;;;;;1999.90;999.90;;;;;;;20.54;100.00;95168.91;5063325;28;20169;-55
2023/06/08 05:21:37;;;;;;;1999.90;999.90;;;;;;;21.02;100.00;95172.44;5063567;28;20174;-59
2023/06/08 05:24:03;;;;;;;1999.90;999.90;;;;;;;21.45;100.00;95180.03;5063537;28;20204;-58
2023/06/08 05:26:28;;;;;;;1999.90;999.90;;;;;;;21.65;100.00;95178.13;5063528;28;20169;-58
2023/06/08 05:28:53;;;;;;;1999.90;999.90;;;;;;;21.82;100.00;95170.84;5063497;28;20199;-52
2023/06/08 05:31:19;;;;;;;1999.90;999.90;;;;;;;21.81;100.00;95169.31;5063475;28;20173;-57
2023/06/08 05:33:44;;;;;;;1999.90;999.90;;;;;;;21.18;100.00;95172.75;5063891;28;20165;-48
2023/06/08 05:36:12;;;;;;;1999.90;999.90;;;;;;;21.35;100.00;95165.44;5063941;28;20204;-50
2023/06/08 05:38:37;;;;;;;1999.90;999.90;;;;;;;21.82;100.00;95173.63;5063973;28;20196;-52
2023/06/08 05:41:02;;;;;;;1999.90;999.90;;;;;;;21.32;100.00;95165.66;5063652;28;20169;-56
2023/06/08 05:43:28;;;;;;;1999.90;999.90;;;;;;;20.98;100.00;95166.28;5063367;28;20207;-56
2023/06/08 05:45:53;;;;;;;1999.90;999.90;;;;;;;20.52;100.00;95159.50;5063179;28;20173;-56
2023/06/08 05:48:18;;;;;;;1999.90;999.90;;;;;;;20.13;100.00;95169.00;5063452;28;20174;-56
2023/06/08 05:50:44;;;;;;;1999.90;999.90;;;;;;;19.98;100.00;95170.91;5063901;28;20200;-56
2023/06/08 05:53:10;;;;;;;1999.90;999.90;;;;;;;19.75;100.00;95169.63;5063256;28;20176;-57
2023/06/08 05:55:36;;;;;;;1999.90;999.90;;;;;;;19.72;100.00;95162.25;5063320;28;20174;-56
2023/06/08 05:58:02;;;;;;;1999.90;999.90;;;;;;;20.18;100.00;95163.56;5063162;28;20174;-57
2023/06/08 06:00:27;;;;;;;1999.90;999.90;;;;;;;20.11;100.00;95169.50;5063510;28;20177;-55
2023/06/08 06:02:53;;;;;;;1999.90;999.90;;;;;;;20.10;100.00;95165.16;5062821;28;20229;-57
2023/06/08 06:05:18;;;;;;;1999.90;999.90;;;;;;;20.08;100.00;95158.53;5063497;28;20190;-57
2023/06/08 06:07:44;;;;;;;1999.90;999.90;;;;;;;20.42;100.00;95167.13;5063981;28;20178;-57
2023/06/08 06:10:10;;;;;;;1999.90;999.90;;;;;;;20.91;100.00;95172.94;5063236;28;20170;-56
2023/06/08 06:12:36;;;;;;;1999.90;999.90;;;;;;;21.69;100.00;95167.56;5063229;28;20189;-57
2023/06/08 06:15:02;;;;;;;1999.90;999.90;;;;;;;22.46;100.00;95171.56;5063582;28;20236;-56
2023/06/08 06:17:27;;;;;;;1999.90;999.90;;;;;;;23.12;100.00;95159.72;5062987;28;20170;-56
2023/06/08 06:19:53;;;;;;;1999.90;999.90;;;;;;;23.47;100.00;95160.34;5063044;28;20200;-57
2023/06/08 06:22:18;;;;;;;1999.90;999.90;;;;;;;23.04;100.00;95153.81;5063151;28;20178;-57
2023/06/08 06:24:44;;;;;;;1999.90;999.90;;;;;;;22.90;100.00;95156.69;5062991;28;20219;-57
2023/06/08 06:27:11;;;;;;;1999.90;999.90;;;;;;;23.04;100.00;95150.25;5063480;28;20166;-57
2023/06/08 06:29:36;;;;;;;1999.90;999.90;;;;;;;23.11;100.00;95155.38;5063778;28;20170;-56
2023/06/08 06:32:01;;;;;;;1999.90;999.90;;;;;;;23.25;100.00;95160.13;5064929;28;20246;-56
2023/06/08 06:34:27;;;;;;;1999.90;999.90;;;;;;;23.87;100.00;95160.19;5066689;28;20170;-57
2023/06/08 06:36:52;;;;;;;1999.90;999.90;;;;;;;24.70;100.00;95153.19;5067063;28;20198;-56
2023/06/08 06:39:19;;;;;;;1999.90;999.90;;;;;;;25.28;94.19;95152.38;5066867;28;20174;-57
2023/06/08 06:41:44;;;;;;;1999.90;999.90;;;;;;;25.62;87.11;95153.22;5066456;28;20174;-56
2023/06/08 06:44:09;;;;;;;1999.90;999.90;;;;;;;26.39;81.50;95153.97;5066901;28;20255;-57
2023/06/08 06:46:35;;;;;;;1999.90;999.90;;;;;;;26.56;81.29;95157.53;5066629;28;20166;-57
2023/06/08 06:49:00;;;;;;;1999.90;999.90;;;;;;;27.33;77.86;95154.47;5066901;28;20207;-58
2023/06/08 06:51:26;;;;;;;1999.90;999.90;;;;;;;27.15;71.21;95168.28;5066826;28;20173;-57
2023/06/08 06:53:51;;;;;;;1999.90;999.90;;;;;;;27.42;73.48;95162.56;5066760;28;20169;-57
2023/06/08 06:56:17;;;;;;;1999.90;999.90;;;;;;;27.69;70.53;95166.47;5066251;28;20170;-55
2023/06/08 06:58:45;;;;;;;1999.90;999.90;;;;;;;27.74;73.30;95166.44;5066153;28;20190;-59
2023/06/08 07:01:11;;;;;;;1999.90;999.90;;;;;;;27.01;72.16;95172.94;5066480;28;20166;-58
2023/06/08 07:03:40;;;;;;;1999.90;999.90;;;;;;;26.29;80.62;95177.94;5065654;28;20263;-58
2023/06/08 07:06:06;;;;;;;1999.90;999.90;;;;;;;26.65;78.80;95171.28;5066409;28;20193;-59
2023/06/08 07:08:34;;;;;;;1999.90;999.90;;;;;;;25.06;87.86;95174.69;5066513;28;20177;-58
2023/06/08 07:11:01;;;;;;;1999.90;999.90;;;;;;;25.59;88.59;95163.38;5065903;28;20166;-59
2023/06/08 07:13:26;;;;;;;1999.90;999.90;;;;;;;27.31;78.91;95176.66;5066408;28;20245;-59
2023/06/08 07:15:52;;;;;;;1999.90;999.90;;;;;;;27.51;77.87;95173.50;5065813;28;20212;-59
2023/06/08 07:18:17;;;;;;;1999.90;999.90;;;;;;;27.72;75.62;95169.00;5066120;28;20173;-59
2023/06/08 07:20:43;;;;;;;1999.90;999.90;;;;;;;27.36;73.70;95170.25;5065673;28;20235;-59
2023/06/08 07:23:08;;;;;;;1999.90;999.90;;;;;;;28.12;71.70;95168.22;5066078;28;20166;-59
2023/06/08 07:25:33;;;;;;;1999.90;999.90;;;;;;;28.11;71.65;95161.06;5065528;28;20267;-59
2023/06/08 07:27:59;;;;;;;1999.90;999.90;;;;;;;28.62;69.30;95167.03;5066152;28;20193;-58
2023/06/08 07:30:26;;;;;;;1999.90;999.90;;;;;;;28.36;69.82;95167.47;5065570;28;20170;-59
2023/06/08 07:32:51;;;;;;;1999.90;999.90;;;;;;;29.35;66.62;95168.47;5065537;28;20178;-59
2023/06/08 07:35:17;;;;;;;1999.90;999.90;;;;;;;29.16;66.59;95164.88;5065493;28;20201;-59
2023/06/08 07:37:42;;;;;;;1999.90;999.90;;;;;;;29.84;64.85;95167.03;5065529;28;20165;-59
2023/06/08 07:40:08;;;;;;;1999.90;999.90;;;;;;;29.96;65.84;95168.38;5065863;28;20174;-59
2023/06/08 07:42:34;;;;;;;1999.90;999.90;;;;;;;30.84;60.33;95167.66;5065828;28;20169;-59
2023/06/08 07:45:00;;;;;;;1999.90;999.90;;;;;;;31.82;56.21;95163.31;5065202;28;20190;-57
2023/06/08 07:47:25;;;;;;;1999.90;999.90;;;;;;;32.40;54.63;95160.91;5065771;28;20223;-58
2023/06/08 07:49:51;;;;;;;1999.90;999.90;;;;;;;32.38;53.02;95163.53;5065663;28;20235;-61
2023/06/08 07:52:16;;;;;;;1999.90;999.90;;;;;;;32.38;53.41;95152.22;5065185;28;20173;-58
2023/06/08 07:54:42;;;;;;;1999.90;999.90;;;;;;;33.28;48.97;95155.69;5065527;28;20189;-59
2023/06/08 07:57:07;;;;;;;1999.90;999.90;;;;;;;32.76;51.44;95158.94;5065617;28;20235;-59
2023/06/08 07:59:33;;;;;;;1999.90;999.90;;;;;;;32.08;53.40;95151.91;5065644;28;20173;-58
2023/06/08 08:01:58;;;;;;;1999.90;999.90;;;;;;;31.56;54.43;95156.94;5065232;28;20194;-59
2023/06/08 08:04:23;;;;;;;1999.90;999.90;;;;;;;32.48;53.37;95155.31;5064791;28;20208;-59
2023/06/08 08:06:49;;;;;;;1999.90;999.90;;;;;;;32.92;49.23;95157.75;5064797;28;20166;-59
2023/06/08 08:09:14;;;;;;;1999.90;999.90;;;;;;;32.59;53.54;95150.13;5065096;28;20204;-58
2023/06/08 08:11:40;;;;;;;1999.90;999.90;;;;;;;32.23;53.69;95145.66;5065349;28;20166;-58
2023/06/08 08:14:09;;;;;;;1999.90;999.90;;;;;;;31.10;54.03;95161.25;5065279;28;20170;-59
2023/06/08 08:16:38;;;;;;;1999.90;999.90;;;;;;;31.52;57.31;95148.81;5064607;28;20170;-58
2023/06/08 08:19:03;;;;;;;1999.90;999.90;;;;;;;31.93;56.05;95143.28;5064550;28;20200;-58
2023/06/08 08:21:29;;;;;;;1999.90;999.90;;;;;;;32.22;55.47;95139.22;5064707;28;20174;-58
2023/06/08 08:23:54;;;;;;;1999.90;999.90;;;;;;;31.64;57.39;95144.44;5064457;28;20198;-58
2023/06/08 08:26:20;;;;;;;1999.90;999.90;;;;;;;31.41;57.65;95157.53;5065001;28;20172;-58
2023/06/08 08:28:46;;;;;;;1999.90;999.90;;;;;;;31.45;57.43;95155.13;5064241;28;20166;-58
2023/06/08 08:31:11;;;;;;;1999.90;999.90;;;;;;;29.60;62.85;95150.25;5064954;28;20176;-58
2023/06/08 08:33:37;;;;;;;1999.90;999.90;;;;;;;29.77;64.25;95156.38;5064344;28;20162;-58
2023/06/08 08:36:04;;;;;;;1999.90;999.90;;;;;;;30.94;61.10;95148.22;5064331;28;20241;-59
2023/06/08 08:38:30;;;;;;;1999.90;999.90;;;;;;;29.16;67.81;95147.97;5064324;28;20189;-58
2023/06/08 08:41:01;;;;;;;1999.90;999.90;;;;;;;30.08;65.34;95144.38;5063946;28;20166;-59
2023/06/08 08:43:37;;;;;;;1999.90;999.90;;;;;;;30.36;65.16;95150.31;5064643;28;20237;-58
2023/06/08 08:46:06;;;;;;;1999.90;999.90;;;;;;;31.26;62.90;95145.28;5064172;28;20173;-59
2023/06/08 08:48:35;;;;;;;1999.90;999.90;;;;;;;30.26;61.82;95152.03;5064613;28;20166;-58
2023/06/08 08:51:00;;;;;;;1999.90;999.90;;;;;;;30.80;62.11;95141.06;5064687;28;20235;-58
2023/06/08 08:53:30;;;;;;;1999.90;999.90;;;;;;;30.51;64.03;95136.44;5064100;28;20245;-58
2023/06/08 08:55:57;;;;;;;1999.90;999.90;;;;;;;29.43;68.93;95150.44;5063506;28;20170;-59
2023/06/08 08:58:23;;;;;;;1999.90;999.90;;;;;;;30.95;63.01;95139.22;5064683;28;20212;-58
2023/06/08 09:00:51;;;;;;;1999.90;999.90;;;;;;;31.17;62.06;95134.44;5064054;28;20166;-58
2023/06/08 09:03:17;;;;;;;1999.90;999.90;;;;;;;29.45;69.32;95138.63;5063730;28;20221;-58
2023/06/08 09:05:44;;;;;;;1999.90;999.90;;;;;;;29.91;67.19;95133.38;5063915;28;20268;-58
2023/06/08 09:08:10;;;;;;;1999.90;999.90;;;;;;;31.38;61.68;95136.03;5063784;28;20180;-58
2023/06/08 09:10:36;;;;;;;1999.90;999.90;;;;;;;31.04;62.33;95129.56;5064341;28;20189;-58
2023/06/08 09:13:02;;;;;;;1999.90;999.90;;;;;;;30.21;65.13;95130.31;5063740;28;20170;-58
2023/06/08 09:15:29;;;;;;;1999.90;999.90;;;;;;;30.29;66.54;95134.03;5063750;28;20177;-58
2023/06/08 09:17:55;;;;;;;1999.90;999.90;;;;;;;30.72;64.59;95120.44;5064140;28;20170;-59
2023/06/08 09:20:32;;;;;;;1999.90;999.90;;;;;;;30.30;67.72;95125.03;5064530;28;20170;-58
2023/06/08 09:23:14;;;;;;;1999.90;999.90;;;;;;;29.91;68.39;95112.88;5064165;28;20176;-58
2023/06/08 09:25:39;;;;;;;1999.90;999.90;;;;;;;30.80;67.47;95115.66;5063957;28;20205;-59
2023/06/08 09:28:17;;;;;;;1999.90;999.90;;;;;;;32.11;58.74;95111.22;5064170;28;20170;-58
2023/06/08 09:30:48;;;;;;;1999.90;999.90;;;;;;;30.92;60.18;95111.34;5063654;28;20177;-58
2023/06/08 09:33:33;;;;;;;1999.90;999.90;;;;;;;31.55;60.06;95116.66;5064127;28;20190;-58
2023/06/08 09:35:58;;;;;;;1999.90;999.90;;;;;;;31.47;56.94;95113.00;5064019;28;20177;-59
2023/06/08 09:38:28;;;;;;;1999.90;999.90;;;;;;;32.22;52.13;95110.19;5063573;28;20201;-58
2023/06/08 09:41:16;;;;;;;1999.90;999.90;;;;;;;31.25;57.18;95107.06;5063493;28;20241;-59
2023/06/08 09:43:44;;;;;;;1999.90;999.90;;;;;;;31.68;55.67;95104.56;5063980;28;20174;-58
2023/06/08 09:46:16;;;;;;;1999.90;999.90;;;;;;;30.83;52.85;95111.75;5063841;28;20245;-58
2023/06/08 09:48:56;;;;;;;1999.90;999.90;;;;;;;31.17;56.79;95115.41;5064073;28;20198;-58
2023/06/08 09:51:23;;;;;;;1999.90;999.90;;;;;;;31.70;62.48;95094.22;5063037;28;20273;-58
2023/06/08 09:53:57;;;;;;;1999.90;999.90;;;;;;;32.90;59.97;95098.09;5063311;28;20166;-58
2023/06/08 09:56:24;;;;;;;1999.90;999.90;;;;;;;31.64;64.23;95090.75;5063640;28;20172;-58
2023/06/08 09:58:56;;;;;;;1999.90;999.90;;;;;;;30.16;72.58;95109.38;5063814;28;20170;-58
2023/06/08 10:01:32;;;;;;;1999.90;999.90;;;;;;;30.62;69.01;95099.56;5063532;28;20238;-58
2023/06/08 10:04:01;;;;;;;1999.90;999.90;;;;;;;28.49;83.23;95100.19;5063116;28;20221;-58
2023/06/08 10:06:29;;;;;;;1999.90;999.90;;;;;;;28.24;90.23;95088.16;5063974;28;20178;-58
2023/06/08 10:08:57;;;;;;;1999.90;999.90;;;;;;;28.26;92.02;95082.78;5067272;28;20204;-59
2023/06/08 10:11:23;;;;;;;1999.90;999.90;;;;;;;27.42;90.74;95091.66;5067241;28;20219;-58
2023/06/08 10:13:50;;;;;;;1999.90;999.90;;;;;;;27.96;90.27;95084.09;5066907;28;20165;-58
2023/06/08 10:16:17;;;;;;;1999.90;999.90;;;;;;;28.79;80.08;95086.03;5067154;28;20174;-58
2023/06/08 10:18:44;;;;;;;1999.90;999.90;;;;;;;29.87;70.86;95084.25;5067487;28;20169;-58
2023/06/08 10:21:09;;;;;;;1999.90;999.90;;;;;;;29.07;73.12;95080.84;5066965;28;20174;-58
2023/06/08 10:23:36;;;;;;;1999.90;999.90;;;;;;;28.03;86.76;95078.66;5066986;28;20212;-58
2023/06/08 10:26:04;;;;;;;1999.90;999.90;;;;;;;27.76;86.50;95065.59;5066899;28;20173;-58
2023/06/08 10:28:29;;;;;;;1999.90;999.90;;;;;;;27.69;87.24;95060.56;5066799;28;20173;-58
2023/06/08 10:30:55;;;;;;;1999.90;999.90;;;;;;;28.50;84.12;95070.03;5066786;28;20237;-59
2023/06/08 10:33:24;;;;;;;1999.90;999.90;;;;;;;27.14;88.80;95065.78;5067195;28;20219;-58
2023/06/08 10:36:09;;;;;;;1999.90;999.90;;;;;;;28.04;87.65;95063.31;5067230;28;20215;-58
2023/06/08 10:38:56;;;;;;;1999.90;999.90;;;;;;;28.69;78.52;95070.84;5066487;28;20170;-58
2023/06/08 10:41:40;;;;;;;1999.90;999.90;;;;;;;29.73;74.52;95060.16;5066154;28;20182;-58
2023/06/08 10:44:22;;;;;;;1999.90;999.90;;;;;;;30.36;70.91;95048.81;5066227;28;20198;-58
2023/06/08 10:46:54;;;;;;;1999.90;999.90;;;;;;;30.09;64.27;95047.25;5066926;28;20188;-58
2023/06/08 10:49:21;;;;;;;1999.90;999.90;;;;;;;29.03;73.09;95055.06;5066928;28;20193;-58